sensor_id;sensor_type;location;lat;lon;timestamp;pressure;altitude;pressure_sealevel;temperature;humidity
55576;BME280;41437;45.478;9.116;2023-03-19T00:02:16;100032.06;;;9.34;84.54
55576;BME280;41437;45.478;9.116;2023-03-19T00:05:18;100021.75;;;9.24;85.10
55576;BME280;41437;45.478;9.116;2023-03-19T00:08:21;100033.66;;;9.29;85.44
55576;BME280;41437;45.478;9.116;2023-03-19T00:11:24;100024.41;;;9.19;87.08
55576;BME280;41437;45.478;9.116;2023-03-19T00:14:28;100044.22;;;9.21;87.10
55576;BME280;41437;45.478;9.116;2023-03-19T00:17:30;100036.72;;;9.16;87.67
55576;BME280;41437;45.478;9.116;2023-03-19T00:20:32;100037.19;;;9.13;87.16
55576;BME280;41437;45.478;9.116;2023-03-19T00:23:35;100026.38;;;9.06;86.79
55576;BME280;41437;45.478;9.116;2023-03-19T00:26:38;100024.94;;;9.04;87.68
55576;BME280;41437;45.478;9.116;2023-03-19T00:29:39;100029.34;;;9.05;87.53
55576;BME280;41437;45.478;9.116;2023-03-19T00:32:42;100035.69;;;9.05;86.92
55576;BME280;41437;45.478;9.116;2023-03-19T00:35:43;100018.13;;;9.06;87.34
55576;BME280;41437;45.478;9.116;2023-03-19T00:38:46;100020.97;;;9.12;87.23
55576;BME280;41437;45.478;9.116;2023-03-19T00:41:49;100018.41;;;8.93;87.33
55576;BME280;41437;45.478;9.116;2023-03-19T00:44:53;100026.25;;;8.73;90.29
55576;BME280;41437;45.478;9.116;2023-03-19T00:47:58;100028.91;;;8.68;90.21
55576;BME280;41437;45.478;9.116;2023-03-19T00:51:04;100033.13;;;8.59;91.05
55576;BME280;41437;45.478;9.116;2023-03-19T00:54:09;100034.94;;;8.41;92.67
55576;BME280;41437;45.478;9.116;2023-03-19T00:57:10;100038.91;;;8.10;93.70
55576;BME280;41437;45.478;9.116;2023-03-19T01:00:14;100041.28;;;7.95;96.22
55576;BME280;41437;45.478;9.116;2023-03-19T01:03:15;100044.28;;;7.93;96.62
55576;BME280;41437;45.478;9.116;2023-03-19T01:06:18;100040.31;;;8.01;98.20
55576;BME280;41437;45.478;9.116;2023-03-19T01:09:21;100031.88;;;8.02;96.86
55576;BME280;41437;45.478;9.116;2023-03-19T01:12:22;100012.19;;;7.94;97.92
55576;BME280;41437;45.478;9.116;2023-03-19T01:15:24;100019.81;;;8.03;98.59
55576;BME280;41437;45.478;9.116;2023-03-19T01:18:26;100026.84;;;8.23;97.37
55576;BME280;41437;45.478;9.116;2023-03-19T01:21:27;100027.78;;;8.28;96.79
55576;BME280;41437;45.478;9.116;2023-03-19T01:24:32;100019.91;;;8.32;97.27
55576;BME280;41437;45.478;9.116;2023-03-19T01:27:33;100026.34;;;8.49;95.38
55576;BME280;41437;45.478;9.116;2023-03-19T01:30:35;100012.84;;;8.48;95.51
55576;BME280;41437;45.478;9.116;2023-03-19T01:33:40;100015.56;;;8.60;95.47
55576;BME280;41437;45.478;9.116;2023-03-19T01:36:43;100004.53;;;8.71;93.87
55576;BME280;41437;45.478;9.116;2023-03-19T01:39:46;99993.38;;;8.78;94.16
55576;BME280;41437;45.478;9.116;2023-03-19T01:42:52;99986.31;;;8.82;93.61
55576;BME280;41437;45.478;9.116;2023-03-19T01:45:59;99976.78;;;8.85;93.19
55576;BME280;41437;45.478;9.116;2023-03-19T01:49:04;99984.22;;;8.72;93.81
55576;BME280;41437;45.478;9.116;2023-03-19T01:52:07;99980.56;;;8.67;94.61
55576;BME280;41437;45.478;9.116;2023-03-19T01:55:11;99981.59;;;8.66;94.10
55576;BME280;41437;45.478;9.116;2023-03-19T01:58:13;99981.91;;;8.52;94.89
55576;BME280;41437;45.478;9.116;2023-03-19T02:01:17;99981.81;;;8.47;95.53
55576;BME280;41437;45.478;9.116;2023-03-19T02:04:19;99983.47;;;8.48;95.83
55576;BME280;41437;45.478;9.116;2023-03-19T02:07:22;99966.16;;;8.48;95.59
55576;BME280;41437;45.478;9.116;2023-03-19T02:10:25;99965.94;;;8.49;95.06
55576;BME280;41437;45.478;9.116;2023-03-19T02:13:27;99957.91;;;8.48;95.63
55576;BME280;41437;45.478;9.116;2023-03-19T02:16:29;99944.56;;;8.40;95.82
55576;BME280;41437;45.478;9.116;2023-03-19T02:19:37;99957.94;;;8.36;96.28
55576;BME280;41437;45.478;9.116;2023-03-19T02:22:47;99973.81;;;8.34;96.55
55576;BME280;41437;45.478;9.116;2023-03-19T02:26:02;99969.66;;;8.31;96.06
55576;BME280;41437;45.478;9.116;2023-03-19T02:29:05;99982.78;;;8.29;98.31
55576;BME280;41437;45.478;9.116;2023-03-19T02:32:06;99973.34;;;8.25;96.33
55576;BME280;41437;45.478;9.116;2023-03-19T02:35:10;99967.75;;;8.20;96.44
55576;BME280;41437;45.478;9.116;2023-03-19T02:38:13;99972.69;;;8.06;98.59
55576;BME280;41437;45.478;9.116;2023-03-19T02:41:17;99966.13;;;7.96;100.00
55576;BME280;41437;45.478;9.116;2023-03-19T02:44:20;99977.72;;;7.63;99.64
55576;BME280;41437;45.478;9.116;2023-03-19T02:47:22;99975.44;;;7.48;100.00
55576;BME280;41437;45.478;9.116;2023-03-19T02:50:24;99967.59;;;7.51;100.00
55576;BME280;41437;45.478;9.116;2023-03-19T02:53:26;99964.38;;;7.54;100.00
55576;BME280;41437;45.478;9.116;2023-03-19T02:56:30;99971.06;;;7.59;100.00
55576;BME280;41437;45.478;9.116;2023-03-19T02:59:32;99972.25;;;7.63;100.00
55576;BME280;41437;45.478;9.116;2023-03-19T03:02:35;99970.09;;;7.65;100.00
55576;BME280;41437;45.478;9.116;2023-03-19T03:05:37;99965.53;;;7.70;99.83
55576;BME280;41437;45.478;9.116;2023-03-19T03:08:39;99966.28;;;7.77;99.51
55576;BME280;41437;45.478;9.116;2023-03-19T03:11:43;99968.19;;;7.77;98.12
55576;BME280;41437;45.478;9.116;2023-03-19T03:14:45;99973.06;;;7.87;96.27
55576;BME280;41437;45.478;9.116;2023-03-19T03:17:47;99972.34;;;7.91;94.96
55576;BME280;41437;45.478;9.116;2023-03-19T03:20:49;99983.78;;;8.00;93.17
55576;BME280;41437;45.478;9.116;2023-03-19T03:23:51;99993.66;;;8.01;92.94
55576;BME280;41437;45.478;9.116;2023-03-19T03:26:54;99994.75;;;8.00;93.17
55576;BME280;41437;45.478;9.116;2023-03-19T03:29:56;100000.50;;;7.98;93.07
55576;BME280;41437;45.478;9.116;2023-03-19T03:32:57;100001.06;;;8.00;92.68
55576;BME280;41437;45.478;9.116;2023-03-19T03:35:59;100010.28;;;7.94;93.86
55576;BME280;41437;45.478;9.116;2023-03-19T03:39:00;100003.59;;;7.90;92.94
55576;BME280;41437;45.478;9.116;2023-03-19T03:42:06;100013.75;;;7.90;93.28
55576;BME280;41437;45.478;9.116;2023-03-19T03:45:08;100012.06;;;7.89;92.02
55576;BME280;41437;45.478;9.116;2023-03-19T03:48:11;100004.06;;;7.64;95.89
55576;BME280;41437;45.478;9.116;2023-03-19T03:51:13;100003.00;;;7.65;91.91
55576;BME280;41437;45.478;9.116;2023-03-19T03:54:15;100008.00;;;7.68;95.12
55576;BME280;41437;45.478;9.116;2023-03-19T03:57:18;100013.72;;;7.54;94.29
55576;BME280;41437;45.478;9.116;2023-03-19T04:00:20;100016.81;;;7.46;95.33
55576;BME280;41437;45.478;9.116;2023-03-19T04:03:23;100005.59;;;7.36;94.84
55576;BME280;41437;45.478;9.116;2023-03-19T04:06:26;100020.25;;;7.42;93.62
55576;BME280;41437;45.478;9.116;2023-03-19T04:09:28;100014.31;;;7.45;93.25
55576;BME280;41437;45.478;9.116;2023-03-19T04:12:32;99997.97;;;7.38;92.48
55576;BME280;41437;45.478;9.116;2023-03-19T04:15:34;100003.56;;;7.43;92.86
55576;BME280;41437;45.478;9.116;2023-03-19T04:18:37;100002.88;;;7.36;92.79
55576;BME280;41437;45.478;9.116;2023-03-19T04:21:38;100010.63;;;7.51;92.21
55576;BME280;41437;45.478;9.116;2023-03-19T04:24:40;100020.03;;;7.55;91.23
55576;BME280;41437;45.478;9.116;2023-03-19T04:27:43;100016.09;;;7.51;91.68
55576;BME280;41437;45.478;9.116;2023-03-19T04:30:46;100021.84;;;7.49;92.75
55576;BME280;41437;45.478;9.116;2023-03-19T04:33:48;100025.63;;;7.48;92.68
55576;BME280;41437;45.478;9.116;2023-03-19T04:36:50;99995.34;;;7.43;92.58
55576;BME280;41437;45.478;9.116;2023-03-19T04:39:51;100016.34;;;7.49;92.75
55576;BME280;41437;45.478;9.116;2023-03-19T04:43:02;100018.34;;;7.42;92.98
55576;BME280;41437;45.478;9.116;2023-03-19T04:46:04;100012.75;;;7.37;93.64
55576;BME280;41437;45.478;9.116;2023-03-19T04:49:07;100028.75;;;7.40;94.34
55576;BME280;41437;45.478;9.116;2023-03-19T04:52:12;100007.16;;;7.44;94.14
55576;BME280;41437;45.478;9.116;2023-03-19T04:55:14;100016.69;;;7.41;94.38
55576;BME280;41437;45.478;9.116;2023-03-19T04:58:17;100009.19;;;7.37;94.14
55576;BME280;41437;45.478;9.116;2023-03-19T05:01:18;100023.94;;;7.36;93.49
55576;BME280;41437;45.478;9.116;2023-03-19T05:04:20;100026.03;;;7.22;93.64
55576;BME280;41437;45.478;9.116;2023-03-19T05:07:22;100022.91;;;7.07;96.14
55576;BME280;41437;45.478;9.116;2023-03-19T05:10:26;100010.13;;;7.00;96.58
55576;BME280;41437;45.478;9.116;2023-03-19T05:13:30;100016.94;;;6.98;95.04
55576;BME280;41437;45.478;9.116;2023-03-19T05:16:31;100011.31;;;6.93;96.75
55576;BME280;41437;45.478;9.116;2023-03-19T05:19:34;100007.78;;;6.74;96.74
55576;BME280;41437;45.478;9.116;2023-03-19T05:22:37;100000.91;;;6.83;97.93
55576;BME280;41437;45.478;9.116;2023-03-19T05:25:39;100009.75;;;6.85;97.86
55576;BME280;41437;45.478;9.116;2023-03-19T05:28:42;100012.25;;;6.87;97.57
55576;BME280;41437;45.478;9.116;2023-03-19T05:31:44;100016.50;;;6.83;98.19
55576;BME280;41437;45.478;9.116;2023-03-19T05:34:47;100017.59;;;6.82;98.05
55576;BME280;41437;45.478;9.116;2023-03-19T05:37:49;100027.94;;;6.79;98.40
55576;BME280;41437;45.478;9.116;2023-03-19T05:40:51;100023.06;;;6.82;98.02
55576;BME280;41437;45.478;9.116;2023-03-19T05:43:54;100031.41;;;6.87;98.68
55576;BME280;41437;45.478;9.116;2023-03-19T05:46:56;100031.53;;;6.80;97.70
55576;BME280;41437;45.478;9.116;2023-03-19T05:49:57;100037.31;;;6.72;97.56
55576;BME280;41437;45.478;9.116;2023-03-19T05:52:59;100041.84;;;6.78;98.67
55576;BME280;41437;45.478;9.116;2023-03-19T05:56:02;100046.53;;;6.59;99.69
55576;BME280;41437;45.478;9.116;2023-03-19T05:59:05;100047.28;;;6.66;99.33
55576;BME280;41437;45.478;9.116;2023-03-19T06:02:07;100036.94;;;6.68;100.00
55576;BME280;41437;45.478;9.116;2023-03-19T06:05:09;100044.28;;;6.86;100.00
55576;BME280;41437;45.478;9.116;2023-03-19T06:08:11;100043.72;;;6.96;100.00
55576;BME280;41437;45.478;9.116;2023-03-19T06:11:12;100052.31;;;6.99;100.00
55576;BME280;41437;45.478;9.116;2023-03-19T06:14:15;100064.16;;;7.12;100.00
55576;BME280;41437;45.478;9.116;2023-03-19T06:17:17;100076.78;;;7.13;99.80
55576;BME280;41437;45.478;9.116;2023-03-19T06:20:19;100074.78;;;7.20;99.37
55576;BME280;41437;45.478;9.116;2023-03-19T06:23:21;100072.75;;;7.27;98.89
55576;BME280;41437;45.478;9.116;2023-03-19T06:26:23;100088.66;;;7.37;99.04
55576;BME280;41437;45.478;9.116;2023-03-19T06:29:27;100094.31;;;7.53;98.41
55576;BME280;41437;45.478;9.116;2023-03-19T06:32:31;100090.75;;;7.65;98.41
55576;BME280;41437;45.478;9.116;2023-03-19T06:35:34;100079.66;;;7.60;96.41
55576;BME280;41437;45.478;9.116;2023-03-19T06:38:36;100083.44;;;7.47;96.61
55576;BME280;41437;45.478;9.116;2023-03-19T06:41:38;100077.47;;;7.38;96.78
55576;BME280;41437;45.478;9.116;2023-03-19T06:44:45;100091.41;;;7.48;99.52
55576;BME280;41437;45.478;9.116;2023-03-19T06:47:49;100081.44;;;7.66;99.98
55576;BME280;41437;45.478;9.116;2023-03-19T06:50:50;100098.66;;;7.96;99.72
55576;BME280;41437;45.478;9.116;2023-03-19T06:53:52;100094.28;;;8.19;100.00
55576;BME280;41437;45.478;9.116;2023-03-19T06:56:54;100102.84;;;8.34;100.00
55576;BME280;41437;45.478;9.116;2023-03-19T06:59:57;100105.25;;;8.42;100.00
55576;BME280;41437;45.478;9.116;2023-03-19T07:02:59;100118.75;;;8.55;98.76
55576;BME280;41437;45.478;9.116;2023-03-19T07:06:00;100110.50;;;8.67;96.76
55576;BME280;41437;45.478;9.116;2023-03-19T07:09:03;100111.63;;;8.83;97.85
55576;BME280;41437;45.478;9.116;2023-03-19T07:12:05;100110.56;;;8.84;98.35
55576;BME280;41437;45.478;9.116;2023-03-19T07:15:09;100116.13;;;9.01;97.63
55576;BME280;41437;45.478;9.116;2023-03-19T07:18:13;100119.84;;;8.95;99.34
55576;BME280;41437;45.478;9.116;2023-03-19T07:21:14;100122.78;;;9.05;100.00
55576;BME280;41437;45.478;9.116;2023-03-19T07:24:16;100127.53;;;9.21;100.00
55576;BME280;41437;45.478;9.116;2023-03-19T07:27:17;100131.81;;;9.29;100.00
55576;BME280;41437;45.478;9.116;2023-03-19T07:30:21;100129.94;;;9.46;99.45
55576;BME280;41437;45.478;9.116;2023-03-19T07:33:23;100141.84;;;9.80;95.19
55576;BME280;41437;45.478;9.116;2023-03-19T07:36:25;100132.91;;;9.90;93.69
55576;BME280;41437;45.478;9.116;2023-03-19T07:39:26;100141.94;;;10.02;92.92
55576;BME280;41437;45.478;9.116;2023-03-19T07:42:28;100143.72;;;10.25;90.58
55576;BME280;41437;45.478;9.116;2023-03-19T07:45:32;100144.84;;;10.46;90.02
55576;BME280;41437;45.478;9.116;2023-03-19T07:48:34;100159.19;;;10.65;87.72
55576;BME280;41437;45.478;9.116;2023-03-19T07:51:36;100161.13;;;10.87;86.08
55576;BME280;41437;45.478;9.116;2023-03-19T07:54:39;100163.13;;;10.91;84.03
55576;BME280;41437;45.478;9.116;2023-03-19T07:57:41;100161.56;;;10.78;84.84
55576;BME280;41437;45.478;9.116;2023-03-19T08:00:46;100165.53;;;10.88;84.75
55576;BME280;41437;45.478;9.116;2023-03-19T08:03:48;100163.28;;;11.01;82.77
55576;BME280;41437;45.478;9.116;2023-03-19T08:06:52;100153.75;;;11.14;82.53
55576;BME280;41437;45.478;9.116;2023-03-19T08:09:55;100152.03;;;11.30;82.18
55576;BME280;41437;45.478;9.116;2023-03-19T08:12:57;100158.75;;;11.39;82.54
55576;BME280;41437;45.478;9.116;2023-03-19T08:16:00;100154.59;;;11.64;80.67
55576;BME280;41437;45.478;9.116;2023-03-19T08:19:02;100151.91;;;11.69;79.78
55576;BME280;41437;45.478;9.116;2023-03-19T08:22:04;100155.81;;;11.73;79.86
55576;BME280;41437;45.478;9.116;2023-03-19T08:25:06;100155.28;;;11.76;79.59
55576;BME280;41437;45.478;9.116;2023-03-19T08:28:08;100157.25;;;11.80;78.64
55576;BME280;41437;45.478;9.116;2023-03-19T08:31:14;100163.03;;;11.79;78.88
55576;BME280;41437;45.478;9.116;2023-03-19T08:34:19;100167.31;;;11.65;79.24
55576;BME280;41437;45.478;9.116;2023-03-19T08:37:21;100160.41;;;11.40;81.22
55576;BME280;41437;45.478;9.116;2023-03-19T08:40:23;100165.28;;;11.55;80.77
55576;BME280;41437;45.478;9.116;2023-03-19T08:43:25;100161.31;;;11.73;80.01
55576;BME280;41437;45.478;9.116;2023-03-19T08:46:28;100166.31;;;11.98;78.33
55576;BME280;41437;45.478;9.116;2023-03-19T08:49:30;100172.88;;;12.24;76.93
55576;BME280;41437;45.478;9.116;2023-03-19T08:52:32;100173.78;;;12.72;74.29
55576;BME280;41437;45.478;9.116;2023-03-19T08:55:36;100169.25;;;13.03;72.26
55576;BME280;41437;45.478;9.116;2023-03-19T08:58:43;100173.94;;;13.02;70.44
55576;BME280;41437;45.478;9.116;2023-03-19T09:01:49;100179.38;;;12.87;71.38
55576;BME280;41437;45.478;9.116;2023-03-19T09:04:52;100180.53;;;12.96;70.90
55576;BME280;41437;45.478;9.116;2023-03-19T09:07:54;100178.34;;;13.56;69.56
55576;BME280;41437;45.478;9.116;2023-03-19T09:10:57;100177.50;;;13.61;67.85
55576;BME280;41437;45.478;9.116;2023-03-19T09:13:59;100172.41;;;13.27;68.08
55576;BME280;41437;45.478;9.116;2023-03-19T09:17:02;100170.75;;;13.26;67.33
55576;BME280;41437;45.478;9.116;2023-03-19T09:20:05;100178.06;;;13.57;66.78
55576;BME280;41437;45.478;9.116;2023-03-19T09:23:07;100183.66;;;13.83;66.49
55576;BME280;41437;45.478;9.116;2023-03-19T09:26:12;100189.72;;;13.70;65.31
55576;BME280;41437;45.478;9.116;2023-03-19T09:29:15;100176.75;;;13.80;65.71
55576;BME280;41437;45.478;9.116;2023-03-19T09:32:22;100181.22;;;14.17;64.81
55576;BME280;41437;45.478;9.116;2023-03-19T09:35:25;100185.66;;;14.33;63.53
55576;BME280;41437;45.478;9.116;2023-03-19T09:38:30;100189.28;;;14.54;61.46
55576;BME280;41437;45.478;9.116;2023-03-19T09:41:39;100185.34;;;14.45;60.92
55576;BME280;41437;45.478;9.116;2023-03-19T09:44:46;100188.69;;;14.32;62.57
55576;BME280;41437;45.478;9.116;2023-03-19T09:47:54;100184.53;;;14.40;61.72
55576;BME280;41437;45.478;9.116;2023-03-19T09:50:59;100184.56;;;14.50;62.00
55576;BME280;41437;45.478;9.116;2023-03-19T09:54:06;100182.00;;;14.94;60.91
55576;BME280;41437;45.478;9.116;2023-03-19T09:57:09;100182.66;;;15.36;58.97
55576;BME280;41437;45.478;9.116;2023-03-19T10:00:19;100177.81;;;15.62;58.17
55576;BME280;41437;45.478;9.116;2023-03-19T10:03:32;100172.25;;;15.72;57.32
55576;BME280;41437;45.478;9.116;2023-03-19T10:06:39;100175.41;;;15.99;57.00
55576;BME280;41437;45.478;9.116;2023-03-19T10:09:53;100183.09;;;16.13;55.85
55576;BME280;41437;45.478;9.116;2023-03-19T10:13:06;100182.03;;;16.03;54.93
55576;BME280;41437;45.478;9.116;2023-03-19T10:16:15;100178.47;;;15.98;54.69
55576;BME280;41437;45.478;9.116;2023-03-19T10:19:23;100173.75;;;15.93;56.11
55576;BME280;41437;45.478;9.116;2023-03-19T10:22:29;100173.59;;;15.15;59.02
55576;BME280;41437;45.478;9.116;2023-03-19T10:25:36;100163.78;;;15.38;57.40
55576;BME280;41437;45.478;9.116;2023-03-19T10:28:42;100163.94;;;15.62;57.01
55576;BME280;41437;45.478;9.116;2023-03-19T10:31:48;100168.41;;;16.07;57.65
55576;BME280;41437;45.478;9.116;2023-03-19T10:34:56;100160.78;;;16.52;54.54
55576;BME280;41437;45.478;9.116;2023-03-19T10:38:11;100155.84;;;16.78;52.07
55576;BME280;41437;45.478;9.116;2023-03-19T10:41:30;100157.06;;;16.62;55.83
55576;BME280;41437;45.478;9.116;2023-03-19T10:44:37;100150.66;;;16.37;56.02
55576;BME280;41437;45.478;9.116;2023-03-19T10:47:42;100155.16;;;16.28;55.40
55576;BME280;41437;45.478;9.116;2023-03-19T10:50:48;100155.00;;;16.14;56.69
55576;BME280;41437;45.478;9.116;2023-03-19T10:53:54;100152.16;;;16.24;56.05
55576;BME280;41437;45.478;9.116;2023-03-19T10:56:58;100143.97;;;16.04;54.83
55576;BME280;41437;45.478;9.116;2023-03-19T11:03:28;100141.06;;;15.85;55.13
55576;BME280;41437;45.478;9.116;2023-03-19T11:06:33;100131.19;;;16.32;56.26
55576;BME280;41437;45.478;9.116;2023-03-19T11:09:36;100140.06;;;16.68;51.69
55576;BME280;41437;45.478;9.116;2023-03-19T11:12:39;100147.25;;;16.74;50.25
55576;BME280;41437;45.478;9.116;2023-03-19T11:15:40;100137.28;;;16.05;51.49
55576;BME280;41437;45.478;9.116;2023-03-19T11:18:48;100138.84;;;16.50;51.64
55576;BME280;41437;45.478;9.116;2023-03-19T11:25:24;100126.34;;;16.48;51.84
55576;BME280;41437;45.478;9.116;2023-03-19T11:28:26;100121.06;;;16.46;51.15
55576;BME280;41437;45.478;9.116;2023-03-19T11:31:36;100127.34;;;16.57;52.08
55576;BME280;41437;45.478;9.116;2023-03-19T11:34:46;100121.31;;;16.21;51.53
55576;BME280;41437;45.478;9.116;2023-03-19T11:37:53;100111.94;;;15.23;54.08
55576;BME280;41437;45.478;9.116;2023-03-19T11:41:02;100116.13;;;15.70;53.04
55576;BME280;41437;45.478;9.116;2023-03-19T11:44:13;100116.53;;;16.26;53.53
55576;BME280;41437;45.478;9.116;2023-03-19T11:47:22;100114.44;;;16.42;52.12
55576;BME280;41437;45.478;9.116;2023-03-19T11:50:35;100104.75;;;16.05;52.67
55576;BME280;41437;45.478;9.116;2023-03-19T11:53:53;100102.19;;;16.72;52.13
55576;BME280;41437;45.478;9.116;2023-03-19T11:57:03;100101.00;;;17.02;50.88
55576;BME280;41437;45.478;9.116;2023-03-19T12:00:17;100095.22;;;17.18;50.21
55576;BME280;41437;45.478;9.116;2023-03-19T12:03:55;100089.50;;;17.09;50.12
55576;BME280;41437;45.478;9.116;2023-03-19T12:07:05;100089.09;;;17.40;48.78
55576;BME280;41437;45.478;9.116;2023-03-19T12:10:26;100081.56;;;17.40;48.02
55576;BME280;41437;45.478;9.116;2023-03-19T12:13:36;100073.75;;;17.42;48.06
55576;BME280;41437;45.478;9.116;2023-03-19T12:16:51;100066.19;;;17.62;47.76
55576;BME280;41437;45.478;9.116;2023-03-19T12:23:44;100063.75;;;16.98;48.33
55576;BME280;41437;45.478;9.116;2023-03-19T12:27:00;100063.38;;;17.24;50.27
55576;BME280;41437;45.478;9.116;2023-03-19T12:30:12;100054.59;;;17.36;49.09
55576;BME280;41437;45.478;9.116;2023-03-19T12:33:30;100045.94;;;17.56;48.17
55576;BME280;41437;45.478;9.116;2023-03-19T12:36:40;100034.13;;;17.64;48.42
55576;BME280;41437;45.478;9.116;2023-03-19T12:39:52;100046.41;;;17.82;48.63
55576;BME280;41437;45.478;9.116;2023-03-19T12:43:01;100044.22;;;17.79;48.23
55576;BME280;41437;45.478;9.116;2023-03-19T12:46:08;100040.13;;;17.71;47.51
55576;BME280;41437;45.478;9.116;2023-03-19T12:49:15;100038.78;;;17.88;48.05
55576;BME280;41437;45.478;9.116;2023-03-19T12:52:20;100037.94;;;17.87;47.86
55576;BME280;41437;45.478;9.116;2023-03-19T12:55:26;100039.72;;;17.97;46.72
55576;BME280;41437;45.478;9.116;2023-03-19T12:58:45;100034.19;;;17.78;47.46
55576;BME280;41437;45.478;9.116;2023-03-19T13:01:53;100032.28;;;17.73;46.52
55576;BME280;41437;45.478;9.116;2023-03-19T13:05:06;100030.50;;;17.82;46.20
55576;BME280;41437;45.478;9.116;2023-03-19T13:08:16;100015.84;;;17.77;46.28
55576;BME280;41437;45.478;9.116;2023-03-19T13:11:30;100013.78;;;17.64;47.52
55576;BME280;41437;45.478;9.116;2023-03-19T13:14:47;100009.31;;;17.63;46.84
55576;BME280;41437;45.478;9.116;2023-03-19T13:18:04;100006.72;;;17.52;45.94
55576;BME280;41437;45.478;9.116;2023-03-19T13:21:21;100012.22;;;18.23;52.29
55576;BME280;41437;45.478;9.116;2023-03-19T13:24:26;100010.53;;;18.08;45.58
55576;BME280;41437;45.478;9.116;2023-03-19T13:27:30;100011.75;;;18.02;44.66
55576;BME280;41437;45.478;9.116;2023-03-19T13:30:34;100014.47;;;17.74;44.29
55576;BME280;41437;45.478;9.116;2023-03-19T13:33:38;100008.28;;;17.58;45.20
55576;BME280;41437;45.478;9.116;2023-03-19T13:36:41;100011.53;;;17.28;44.62
55576;BME280;41437;45.478;9.116;2023-03-19T13:39:45;100022.69;;;17.28;44.55
55576;BME280;41437;45.478;9.116;2023-03-19T13:42:55;100005.97;;;17.28;44.73
55576;BME280;41437;45.478;9.116;2023-03-19T13:46:04;100008.69;;;17.33;44.16
55576;BME280;41437;45.478;9.116;2023-03-19T13:49:31;100012.00;;;17.35;44.95
55576;BME280;41437;45.478;9.116;2023-03-19T13:53:11;100000.41;;;17.28;44.79
55576;BME280;41437;45.478;9.116;2023-03-19T13:56:20;99999.59;;;17.08;45.04
55576;BME280;41437;45.478;9.116;2023-03-19T13:59:24;99994.38;;;17.02;45.51
55576;BME280;41437;45.478;9.116;2023-03-19T14:02:47;99995.50;;;17.01;46.45
55576;BME280;41437;45.478;9.116;2023-03-19T14:05:52;99991.38;;;16.98;46.37
55576;BME280;41437;45.478;9.116;2023-03-19T14:08:58;99986.09;;;16.97;46.32
55576;BME280;41437;45.478;9.116;2023-03-19T14:12:10;99982.81;;;17.14;46.29
55576;BME280;41437;45.478;9.116;2023-03-19T14:15:15;99966.34;;;16.98;47.24
55576;BME280;41437;45.478;9.116;2023-03-19T14:18:20;99978.53;;;17.02;46.61
55576;BME280;41437;45.478;9.116;2023-03-19T14:21:34;99978.53;;;17.02;47.22
55576;BME280;41437;45.478;9.116;2023-03-19T14:24:39;99974.47;;;16.95;46.93
55576;BME280;41437;45.478;9.116;2023-03-19T14:27:45;99976.41;;;16.94;47.28
55576;BME280;41437;45.478;9.116;2023-03-19T14:30:48;99973.00;;;16.97;46.70
55576;BME280;41437;45.478;9.116;2023-03-19T14:33:57;99961.34;;;17.14;45.76
55576;BME280;41437;45.478;9.116;2023-03-19T14:37:07;99961.59;;;17.18;45.64
55576;BME280;41437;45.478;9.116;2023-03-19T14:40:21;99974.38;;;17.19;46.14
55576;BME280;41437;45.478;9.116;2023-03-19T14:43:44;99959.84;;;17.22;45.97
55576;BME280;41437;45.478;9.116;2023-03-19T14:47:20;99969.78;;;17.09;46.52
55576;BME280;41437;45.478;9.116;2023-03-19T14:50:52;99968.06;;;16.94;46.16
55576;BME280;41437;45.478;9.116;2023-03-19T14:54:03;99961.94;;;16.92;45.50
55576;BME280;41437;45.478;9.116;2023-03-19T14:57:16;99961.63;;;16.75;45.91
55576;BME280;41437;45.478;9.116;2023-03-19T15:00:19;99952.41;;;16.55;47.15
55576;BME280;41437;45.478;9.116;2023-03-19T15:03:29;99947.59;;;16.61;46.57
55576;BME280;41437;45.478;9.116;2023-03-19T15:06:44;99949.41;;;16.71;46.59
55576;BME280;41437;45.478;9.116;2023-03-19T15:09:51;99943.28;;;16.74;46.08
55576;BME280;41437;45.478;9.116;2023-03-19T15:13:15;99947.13;;;16.78;46.89
55576;BME280;41437;45.478;9.116;2023-03-19T15:16:33;99946.72;;;16.66;46.56
55576;BME280;41437;45.478;9.116;2023-03-19T15:19:39;99947.84;;;16.65;46.02
55576;BME280;41437;45.478;9.116;2023-03-19T15:22:53;99950.75;;;16.78;46.51
55576;BME280;41437;45.478;9.116;2023-03-19T15:25:56;99943.84;;;16.71;46.40
55576;BME280;41437;45.478;9.116;2023-03-19T15:29:00;99945.06;;;16.65;46.94
55576;BME280;41437;45.478;9.116;2023-03-19T15:32:03;99940.16;;;16.56;48.28
55576;BME280;41437;45.478;9.116;2023-03-19T15:35:07;99949.56;;;16.61;47.57
55576;BME280;41437;45.478;9.116;2023-03-19T15:38:16;99948.91;;;16.69;46.87
55576;BME280;41437;45.478;9.116;2023-03-19T15:41:25;99948.25;;;16.53;46.93
55576;BME280;41437;45.478;9.116;2023-03-19T15:44:34;99945.78;;;16.51;47.30
55576;BME280;41437;45.478;9.116;2023-03-19T15:47:43;99940.00;;;16.48;47.03
55576;BME280;41437;45.478;9.116;2023-03-19T15:50:47;99939.66;;;16.54;47.74
55576;BME280;41437;45.478;9.116;2023-03-19T15:53:54;99945.25;;;16.49;47.41
55576;BME280;41437;45.478;9.116;2023-03-19T15:57:01;99949.53;;;16.42;47.22
55576;BME280;41437;45.478;9.116;2023-03-19T16:00:09;99955.25;;;16.26;47.24
55576;BME280;41437;45.478;9.116;2023-03-19T16:03:15;99952.78;;;16.25;47.31
55576;BME280;41437;45.478;9.116;2023-03-19T16:06:23;99943.00;;;16.27;47.98
55576;BME280;41437;45.478;9.116;2023-03-19T16:09:37;99942.25;;;16.22;47.99
55576;BME280;41437;45.478;9.116;2023-03-19T16:12:41;99934.28;;;16.15;48.47
55576;BME280;41437;45.478;9.116;2023-03-19T16:16:02;99955.03;;;16.23;46.64
55576;BME280;41437;45.478;9.116;2023-03-19T16:19:30;99959.06;;;16.12;47.02
55576;BME280;41437;45.478;9.116;2023-03-19T16:22:35;99962.47;;;16.03;47.30
55576;BME280;41437;45.478;9.116;2023-03-19T16:25:38;99958.44;;;15.91;48.16
55576;BME280;41437;45.478;9.116;2023-03-19T16:28:42;99960.47;;;15.80;48.46
55576;BME280;41437;45.478;9.116;2023-03-19T16:31:47;99959.41;;;15.76;49.15